Time;durP1;ratioP1;P1;durP2;ratioP2;P2;SDS_P1;SDS_P2;PMS_P1;PMS_P2;Temp;Humidity;BMP_temperature;BMP_pressure;BME280_temperature;BME280_humidity;BME280_pressure;Samples;Min_cycle;Max_cycle;Signal;HPM_P1;HPM_P2
2023/06/23 00:01:45;;;;;;;2.50;1.23;;;20.20;93.30;;;;;;5049861;28;20053;-78
2023/06/23 00:04:11;;;;;;;2.42;1.45;;;20.20;86.20;;;;;;5048036;28;20036;-77
2023/06/23 00:06:38;;;;;;;3.08;2.05;;;20.30;78.10;;;;;;5048251;28;20036;-79
2023/06/23 00:09:13;;;;;;;2.78;1.58;;;20.20;74.00;;;;;;5048393;28;20029;-77
2023/06/23 00:11:43;;;;;;;3.25;1.80;;;20.30;73.10;;;;;;5051391;28;20033;-76
2023/06/23 00:14:09;;;;;;;3.40;2.30;;;20.30;57.50;;;;;;5045460;28;20033;-76
2023/06/23 00:16:39;;;;;;;2.88;1.92;;;20.30;42.80;;;;;;5032445;28;20049;-76
2023/06/23 00:19:06;;;;;;;5.60;2.10;;;20.30;33.90;;;;;;5049528;28;20036;-77
2023/06/23 00:21:32;;;;;;;2.85;1.83;;;20.30;33.40;;;;;;5051831;28;20040;-76
2023/06/23 00:23:58;;;;;;;3.25;2.03;;;20.20;34.90;;;;;;5030104;28;20388;-77
2023/06/23 00:26:25;;;;;;;4.07;2.60;;;20.20;29.20;;;;;;5049776;28;20095;-75
2023/06/23 00:28:51;;;;;;;4.28;3.10;;;20.30;18.20;;;;;;5047548;28;20095;-75
2023/06/23 00:31:17;;;;;;;4.10;3.08;;;20.20;13.50;;;;;;5050051;28;20029;-75
2023/06/23 00:33:47;;;;;;;4.15;2.33;;;20.20;9.20;;;;;;5063340;28;20052;-79
2023/06/23 00:36:14;;;;;;;3.75;2.97;;;20.20;12.40;;;;;;5048680;28;20052;-75
2023/06/23 00:38:40;;;;;;;4.28;3.15;;;20.20;9.00;;;;;;5064367;28;20048;-75
2023/06/23 00:41:06;;;;;;;4.10;2.80;;;20.20;1.00;;;;;;5050902;28;20109;-75
2023/06/23 00:43:32;;;;;;;5.55;3.17;;;20.20;2.60;;;;;;5049849;28;20059;-77
2023/06/23 00:46:13;;;;;;;4.40;3.00;;;20.20;1.00;;;;;;5050099;28;20108;-75
2023/06/23 00:48:40;;;;;;;4.38;3.03;;;20.20;1.00;;;;;;5033771;28;20508;-76
2023/06/23 00:51:06;;;;;;;5.38;3.20;;;20.20;1.00;;;;;;5049661;28;20029;-76
2023/06/23 00:53:34;;;;;;;4.97;3.35;;;20.20;1.00;;;;;;5031809;28;20392;-77
2023/06/23 00:56:01;;;;;;;5.13;3.72;;;20.20;1.00;;;;;;5048203;28;20056;-75
2023/06/23 00:58:28;;;;;;;6.07;4.05;;;20.20;1.00;;;;;;5039185;28;20052;-76
2023/06/23 01:00:56;;;;;;;7.15;3.70;;;20.20;1.00;;;;;;5028968;28;20380;-76
2023/06/23 01:03:22;;;;;;;5.45;3.65;;;20.20;1.00;;;;;;5047604;28;20057;-76
2023/06/23 01:05:51;;;;;;;5.68;3.33;;;20.30;1.00;;;;;;5060336;28;20052;-76
2023/06/23 01:08:41;;;;;;;4.32;2.67;;;20.30;1.00;;;;;;5063797;28;20496;-74
2023/06/23 01:11:24;;;;;;;7.03;3.50;;;20.30;1.00;;;;;;5047449;28;20040;-76
2023/06/23 01:14:12;;;;;;;4.65;3.58;;;20.20;1.00;;;;;;5027684;28;20040;-75
2023/06/23 01:16:46;;;;;;;4.38;2.70;;;20.20;1.00;;;;;;5049068;28;20404;-74
2023/06/23 01:19:20;;;;;;;4.70;3.40;;;20.20;1.00;;;;;;5046321;28;20139;-76
2023/06/23 01:22:31;;;;;;;4.90;2.90;;;20.20;1.00;;;;;;5050626;28;20041;-75
2023/06/23 01:25:13;;;;;;;6.05;3.55;;;20.20;1.00;;;;;;5004906;28;20048;-75
2023/06/23 01:27:59;;;;;;;5.80;3.25;;;20.20;1.00;;;;;;5062971;28;20391;-76
2023/06/23 01:30:29;;;;;;;6.38;3.90;;;20.20;1.00;;;;;;5048662;28;20049;-74
2023/06/23 01:33:08;;;;;;;5.95;3.92;;;20.20;1.00;;;;;;5060085;28;20052;-75
2023/06/23 01:35:40;;;;;;;7.57;4.13;;;20.20;1.00;;;;;;5053972;28;20463;-75
2023/06/23 01:38:14;;;;;;;6.50;4.18;;;20.10;1.00;;;;;;5034291;28;20041;-76
2023/06/23 01:40:41;;;;;;;7.10;4.32;;;20.10;1.00;;;;;;5033944;28;20030;-76
2023/06/23 01:43:10;;;;;;;8.40;4.65;;;20.10;1.00;;;;;;5050422;28;20044;-77
2023/06/23 01:45:39;;;;;;;7.22;4.57;;;20.00;1.00;;;;;;5045226;28;20044;-77
2023/06/23 01:48:11;;;;;;;8.13;3.58;;;20.10;1.00;;;;;;5046674;28;20037;-75
2023/06/23 01:50:40;;;;;;;5.43;4.00;;;20.10;1.00;;;;;;5045131;28;20037;-77
2023/06/23 01:53:07;;;;;;;6.70;4.45;;;20.10;1.00;;;;;;5048036;28;20037;-74
2023/06/23 01:55:36;;;;;;;9.27;5.57;;;20.10;1.00;;;;;;5041857;28;20026;-79
2023/06/23 01:58:05;;;;;;;8.90;5.07;;;20.10;1.00;;;;;;5042171;28;20391;-75
2023/06/23 02:00:32;;;;;;;9.93;5.25;;;20.10;1.00;;;;;;5059724;28;20049;-76
2023/06/23 02:02:59;;;;;;;8.45;4.68;;;20.10;3.20;;;;;;5042143;28;20408;-79
2023/06/23 02:05:26;;;;;;;8.50;5.15;;;20.10;2.50;;;;;;5062621;28;20033;-80
2023/06/23 02:07:55;;;;;;;10.27;5.38;;;20.10;1.00;;;;;;5048183;28;20039;-78
2023/06/23 02:10:24;;;;;;;9.73;5.35;;;20.00;2.50;;;;;;5048130;28;20045;-78
2023/06/23 02:12:53;;;;;;;7.70;5.22;;;20.10;2.80;;;;;;5030254;28;20044;-81
2023/06/23 02:15:21;;;;;;;8.20;4.80;;;20.00;1.10;;;;;;5044986;28;20048;-77
2023/06/23 02:17:49;;;;;;;9.00;5.57;;;20.00;6.10;;;;;;5047234;28;20490;-77
2023/06/23 02:20:17;;;;;;;5.90;4.60;;;20.00;1.00;;;;;;5046020;28;20036;-74
2023/06/23 02:22:49;;;;;;;5.55;4.10;;;19.90;21.90;;;;;;5013062;28;20041;-74
2023/06/23 02:25:16;;;;;;;9.82;4.45;;;19.90;6.10;;;;;;5031127;28;20040;-76
2023/06/23 02:27:46;;;;;;;4.85;3.30;;;19.90;3.60;;;;;;5033730;28;20037;-75
2023/06/23 02:30:13;;;;;;;6.22;4.47;;;19.90;15.90;;;;;;5048431;28;20515;-76
2023/06/23 02:32:39;;;;;;;5.57;4.07;;;19.90;11.30;;;;;;5047265;28;20056;-75
2023/06/23 02:35:09;;;;;;;5.18;3.95;;;19.80;6.40;;;;;;5048178;28;20029;-75
2023/06/23 02:37:39;;;;;;;4.97;4.15;;;19.80;1.90;;;;;;5045844;28;20029;-76
2023/06/23 02:40:10;;;;;;;5.68;3.92;;;19.80;1.00;;;;;;5046442;28;20135;-77
2023/06/23 02:42:42;;;;;;;5.65;4.40;;;19.70;1.00;;;;;;5027114;28;20037;-77
2023/06/23 02:45:15;;;;;;;5.93;4.50;;;19.70;1.50;;;;;;5049242;28;20064;-75
2023/06/23 02:47:44;;;;;;;5.05;4.20;;;19.70;1.00;;;;;;5048123;28;20040;-75
2023/06/23 02:50:13;;;;;;;5.15;4.10;;;19.70;1.00;;;;;;5033038;28;20040;-76
2023/06/23 02:52:44;;;;;;;5.53;3.97;;;19.70;1.00;;;;;;5049772;28;20037;-76
2023/06/23 02:55:12;;;;;;;9.63;5.28;;;19.70;1.00;;;;;;5033625;28;20037;-76
2023/06/23 02:57:40;;;;;;;5.35;4.18;;;19.80;1.00;;;;;;5052785;28;20036;-75
2023/06/23 03:00:13;;;;;;;8.38;5.03;;;19.70;1.00;;;;;;5050744;28;20037;-77
2023/06/23 03:02:42;;;;;;;8.63;4.93;;;19.80;1.00;;;;;;5049467;28;20053;-76
2023/06/23 03:05:08;;;;;;;7.85;5.15;;;19.80;1.00;;;;;;5050669;28;20036;-75
2023/06/23 03:07:38;;;;;;;7.05;4.80;;;19.80;1.00;;;;;;5050111;28;20025;-76
2023/06/23 03:10:08;;;;;;;10.27;4.70;;;19.70;1.00;;;;;;5033196;28;20404;-77
2023/06/23 03:12:34;;;;;;;6.93;4.18;;;19.80;1.00;;;;;;5050112;28;20275;-75
2023/06/23 03:15:04;;;;;;;7.32;5.20;;;19.80;1.00;;;;;;5051754;28;20028;-77
2023/06/23 03:17:35;;;;;;;9.27;5.07;;;19.80;1.00;;;;;;5050743;28;20037;-76
2023/06/23 03:20:25;;;;;;;5.60;4.60;;;19.80;1.00;;;;;;5067368;28;20032;-74
2023/06/23 03:23:13;;;;;;;6.30;4.75;;;19.80;1.00;;;;;;5051552;28;20419;-78
2023/06/23 03:25:43;;;;;;;7.85;6.28;;;19.80;1.00;;;;;;5067530;28;20048;-76
2023/06/23 03:28:12;;;;;;;9.25;6.35;;;19.80;1.00;;;;;;5048932;28;20369;-74
2023/06/23 03:30:47;;;;;;;6.40;4.93;;;19.80;1.00;;;;;;5051117;28;20033;-74
2023/06/23 03:33:25;;;;;;;9.43;5.88;;;19.80;1.00;;;;;;5049069;28;20263;-76
2023/06/23 03:35:55;;;;;;;10.40;6.32;;;19.80;1.00;;;;;;5025516;28;20029;-75
2023/06/23 03:38:23;;;;;;;8.65;6.30;;;19.80;1.00;;;;;;5050246;28;20049;-78
2023/06/23 03:41:03;;;;;;;10.65;6.03;;;19.80;1.00;;;;;;5049399;28;20029;-78
2023/06/23 03:43:44;;;;;;;11.35;6.45;;;19.80;1.00;;;;;;5061039;28;20053;-76
2023/06/23 03:46:20;;;;;;;8.88;5.93;;;19.80;1.00;;;;;;5022855;28;20037;-77
2023/06/23 03:48:50;;;;;;;8.55;5.10;;;19.70;1.00;;;;;;5049447;28;20051;-77
2023/06/23 03:51:17;;;;;;;8.00;5.43;;;19.80;1.00;;;;;;5034575;28;20044;-77
2023/06/23 03:53:45;;;;;;;8.43;5.70;;;19.70;1.00;;;;;;5033052;28;20032;-78
2023/06/23 03:56:12;;;;;;;8.45;5.47;;;19.60;1.00;;;;;;5050732;28;20039;-77
2023/06/23 03:58:40;;;;;;;6.93;5.05;;;19.70;1.00;;;;;;5051963;28;20044;-79
2023/06/23 04:01:07;;;;;;;8.45;5.82;;;19.60;1.00;;;;;;5047706;28;20047;-80
2023/06/23 04:03:37;;;;;;;9.23;6.47;;;19.60;1.00;;;;;;5044329;28;20052;-80
2023/06/23 04:06:07;;;;;;;10.20;7.10;;;19.60;3.40;;;;;;5031293;28;20025;-82
2023/06/23 04:08:36;;;;;;;12.98;7.97;;;19.40;13.20;;;;;;5044901;28;20451;-80
2023/06/23 04:11:03;;;;;;;8.43;6.63;;;19.20;52.10;;;;;;5050039;28;20044;-78
2023/06/23 04:13:33;;;;;;;11.23;7.95;;;19.10;73.40;;;;;;5047457;28;20407;-77
2023/06/23 04:16:02;;;;;;;10.18;7.38;;;19.00;88.80;;;;;;5064161;28;20040;-77
2023/06/23 04:18:32;;;;;;;10.60;8.43;;;19.00;96.40;;;;;;5048352;28;20030;-79
2023/06/23 04:21:00;;;;;;;11.07;8.60;;;19.00;83.40;;;;;;5065919;28;20041;-78
2023/06/23 04:23:27;;;;;;;12.43;8.07;;;18.90;98.40;;;;;;5043892;28;20037;-77
2023/06/23 04:25:54;;;;;;;12.60;9.48;;;18.80;94.90;;;;;;5017304;28;20037;-76
2023/06/23 04:28:24;;;;;;;12.18;8.75;;;18.90;99.90;;;;;;5046528;28;20356;-77
2023/06/23 04:30:53;;;;;;;10.13;8.80;;;18.80;98.30;;;;;;5034427;28;20399;-78
2023/06/23 04:33:19;;;;;;;10.18;8.35;;;18.80;96.20;;;;;;5029611;28;20598;-78
2023/06/23 04:35:49;;;;;;;12.50;9.45;;;18.80;88.70;;;;;;5050433;28;20029;-77
2023/06/23 04:38:18;;;;;;;12.75;8.27;;;18.90;91.40;;;;;;5033749;28;20045;-77
2023/06/23 04:40:51;;;;;;;9.98;8.88;;;18.90;86.50;;;;;;5028360;28;20041;-76
2023/06/23 04:43:28;;;;;;;10.30;8.63;;;19.00;57.30;;;;;;5047756;28;20037;-75
2023/06/23 04:46:18;;;;;;;12.75;9.02;;;19.10;46.70;;;;;;5048179;28;20036;-78
2023/06/23 04:48:56;;;;;;;10.52;8.32;;;19.10;27.40;;;;;;5032725;28;20044;-79
2023/06/23 04:51:28;;;;;;;11.80;9.30;;;19.20;22.30;;;;;;5061965;28;20055;-76
2023/06/23 04:54:00;;;;;;;12.20;8.60;;;19.20;25.50;;;;;;5046946;28;20060;-76
2023/06/23 04:56:32;;;;;;;11.52;8.73;;;19.20;32.10;;;;;;5048152;28;20036;-78
2023/06/23 04:59:02;;;;;;;10.88;8.85;;;19.20;20.70;;;;;;5046137;28;20068;-77
2023/06/23 05:01:30;;;;;;;12.68;10.15;;;19.20;18.70;;;;;;5048257;28;20025;-79
2023/06/23 05:04:00;;;;;;;10.80;8.10;;;19.20;11.40;;;;;;5031683;28;20033;-81
2023/06/23 05:06:28;;;;;;;11.93;9.25;;;19.20;18.30;;;;;;5046346;28;20036;-77
2023/06/23 05:08:56;;;;;;;11.15;8.40;;;19.20;14.20;;;;;;5048049;28;20392;-75
2023/06/23 05:11:23;;;;;;;13.82;8.75;;;19.20;4.30;;;;;;5047936;28;20028;-75
2023/06/23 05:13:52;;;;;;;11.55;7.90;;;19.20;4.10;;;;;;5062021;28;20041;-77
2023/06/23 05:16:20;;;;;;;11.00;8.05;;;19.20;5.10;;;;;;5049863;28;20033;-79
2023/06/23 05:18:47;;;;;;;13.45;8.15;;;19.20;2.80;;;;;;5059255;28;20049;-78
2023/06/23 05:21:20;;;;;;;10.82;8.23;;;19.20;4.90;;;;;;5047062;28;20029;-78
2023/06/23 05:23:50;;;;;;;9.10;7.28;;;19.20;4.50;;;;;;5045123;28;20045;-75
2023/06/23 05:26:16;;;;;;;;;;;19.20;2.60;;;;;;5024304;28;20037;-78
2023/06/23 05:28:45;;;;;;;10.93;7.85;;;19.20;1.90;;;;;;5045349;28;19913;-78
2023/06/23 05:31:13;;;;;;;11.77;8.23;;;19.20;8.60;;;;;;5060642;28;20048;-74
2023/06/23 05:33:41;;;;;;;9.50;6.88;;;19.20;5.50;;;;;;5045996;28;20037;-77
2023/06/23 05:36:11;;;;;;;10.02;7.45;;;19.20;8.60;;;;;;5046451;28;20029;-76
2023/06/23 05:38:41;;;;;;;9.48;7.18;;;19.30;8.60;;;;;;5062333;28;20049;-76
2023/06/23 05:41:07;;;;;;;9.27;7.55;;;19.20;1.00;;;;;;5046405;28;20040;-76
2023/06/23 05:43:33;;;;;;;9.15;7.30;;;19.20;1.30;;;;;;5029584;28;20041;-77
2023/06/23 05:46:04;;;;;;;9.55;7.13;;;19.20;6.30;;;;;;5052581;28;20403;-81
2023/06/23 05:48:39;;;;;;;11.95;7.00;;;19.20;1.10;;;;;;5047700;28;20048;-79
2023/06/23 05:51:08;;;;;;;8.77;6.97;;;19.10;1.00;;;;;;5048393;28;20459;-76
2023/06/23 05:53:36;;;;;;;10.00;6.65;;;19.20;1.00;;;;;;5046335;28;20037;-76
2023/06/23 05:56:13;;;;;;;9.27;6.25;;;19.20;1.00;;;;;;5046819;28;20033;-77
2023/06/23 05:58:44;;;;;;;7.80;5.18;;;19.20;1.00;;;;;;5062845;28;20091;-75
2023/06/23 06:01:19;;;;;;;8.23;6.20;;;19.20;1.00;;;;;;5044813;28;20033;-79
2023/06/23 06:03:57;;;;;;;8.02;6.15;;;19.30;1.00;;;;;;5045273;28;20140;-76
2023/06/23 06:06:24;;;;;;;8.13;5.68;;;19.30;1.00;;;;;;5043377;28;20367;-76
2023/06/23 06:08:54;;;;;;;10.30;5.80;;;19.40;1.00;;;;;;5047222;28;20371;-76
2023/06/23 06:11:22;;;;;;;9.32;5.95;;;19.40;1.00;;;;;;5048216;28;20360;-76
2023/06/23 06:13:49;;;;;;;6.78;4.72;;;19.50;1.00;;;;;;5027011;28;20055;-78
2023/06/23 06:16:18;;;;;;;7.95;5.10;;;19.80;1.00;;;;;;5047122;28;20044;-76
2023/06/23 06:18:46;;;;;;;10.18;6.18;;;20.00;1.00;;;;;;5044713;28;20029;-78
2023/06/23 06:21:15;;;;;;;8.70;5.32;;;19.90;1.00;;;;;;5028353;28;20083;-79
2023/06/23 06:23:42;;;;;;;9.63;5.82;;;19.70;1.00;;;;;;5022868;28;20049;-76
2023/06/23 06:26:10;;;;;;;10.43;5.07;;;19.50;1.00;;;;;;5029747;28;20048;-75
2023/06/23 06:28:39;;;;;;;6.82;5.05;;;19.60;1.00;;;;;;5045976;28;20040;-75
2023/06/23 06:31:07;;;;;;;5.45;4.35;;;19.70;1.00;;;;;;5062083;28;20048;-76
2023/06/23 06:33:36;;;;;;;6.97;4.93;;;19.80;1.00;;;;;;5045502;28;20037;-79
2023/06/23 06:36:05;;;;;;;8.00;4.45;;;20.20;1.00;;;;;;5046892;28;20041;-80
2023/06/23 06:38:37;;;;;;;4.97;3.47;;;20.30;1.00;;;;;;5025749;28;20032;-81
2023/06/23 06:41:05;;;;;;;7.60;4.32;;;20.20;1.00;;;;;;5049406;28;20029;-81
2023/06/23 06:43:32;;;;;;;5.85;4.07;;;20.30;1.00;;;;;;5048456;28;20404;-78
2023/06/23 06:46:02;;;;;;;6.43;3.47;;;20.40;1.00;;;;;;5063501;28;20045;-79
2023/06/23 06:48:31;;;;;;;4.25;3.55;;;20.20;1.00;;;;;;5046538;28;20037;-80
2023/06/23 06:50:58;;;;;;;6.43;3.28;;;20.30;1.00;;;;;;5047485;28;20329;-79
2023/06/23 06:53:25;;;;;;;4.07;3.00;;;20.40;1.00;;;;;;5045342;28;20459;-79
2023/06/23 06:55:53;;;;;;;6.40;3.75;;;20.40;1.00;;;;;;5046329;28;20021;-77
2023/06/23 06:58:20;;;;;;;5.45;3.83;;;20.30;1.00;;;;;;5042235;28;20387;-75
2023/06/23 07:00:46;;;;;;;5.43;3.47;;;20.20;1.00;;;;;;4942579;29;20031;-77
2023/06/23 07:03:16;;;;;;;7.47;3.78;;;20.20;1.00;;;;;;4946593;29;20054;-77
2023/06/23 07:05:42;;;;;;;6.88;3.67;;;20.40;1.00;;;;;;4946349;29;20397;-77
2023/06/23 07:08:08;;;;;;;4.20;3.30;;;20.60;1.00;;;;;;5033905;28;20032;-76
2023/06/23 07:10:36;;;;;;;4.90;3.60;;;20.90;1.00;;;;;;5016123;28;20043;-80
2023/06/23 07:13:03;;;;;;;4.65;3.30;;;21.40;99.90;;;;;;4944198;29;20050;-78
2023/06/23 07:15:30;;;;;;;4.85;3.22;;;21.40;99.90;;;;;;5028965;28;20044;-79
2023/06/23 07:17:56;;;;;;;4.47;3.42;;;21.60;99.90;;;;;;4946333;29;20397;-77
2023/06/23 07:20:22;;;;;;;6.57;3.55;;;21.60;99.90;;;;;;4946073;29;20050;-78
2023/06/23 07:22:48;;;;;;;5.00;2.90;;;21.80;99.90;;;;;;4947108;29;20046;-80
2023/06/23 07:25:15;;;;;;;7.13;3.75;;;22.20;99.90;;;;;;4948277;28;20062;-79
2023/06/23 07:27:41;;;;;;;6.22;3.70;;;22.30;99.90;;;;;;5027531;28;20047;-77
2023/06/23 07:30:08;;;;;;;10.27;3.42;;;22.60;99.90;;;;;;4948772;29;20359;-82
2023/06/23 07:32:34;;;;;;;5.97;3.45;;;22.70;99.90;;;;;;4949632;29;20035;-78
2023/06/23 07:35:00;;;;;;;6.30;4.25;;;23.20;99.90;;;;;;5012344;28;20046;-78
2023/06/23 07:37:26;;;;;;;5.90;3.33;;;23.50;99.90;;;;;;4947399;29;20038;-79
2023/06/23 07:39:53;;;;;;;12.48;3.38;;;23.60;99.90;;;;;;5016386;28;20039;-81
2023/06/23 07:42:19;;;;;;;6.53;3.80;;;23.30;99.90;;;;;;4948561;29;20035;-81
2023/06/23 07:44:45;;;;;;;4.53;3.53;;;22.60;99.90;;;;;;4947517;29;20126;-77
2023/06/23 07:47:12;;;;;;;4.80;3.75;;;23.00;99.90;;;;;;4948759;29;20401;-80
2023/06/23 07:49:38;;;;;;;5.03;3.53;;;23.30;99.90;;;;;;5013926;28;20039;-77
2023/06/23 07:52:05;;;;;;;5.07;3.35;;;22.40;99.90;;;;;;4944306;29;20036;-78
2023/06/23 07:54:31;;;;;;;5.30;3.03;;;22.20;99.90;;;;;;5045358;28;20505;-78
2023/06/23 07:56:59;;;;;;;7.32;3.42;;;22.50;99.90;;;;;;4949319;29;20496;-78
2023/06/23 07:59:26;;;;;;;17.90;4.30;;;22.30;99.90;;;;;;5029828;28;20116;-77
2023/06/23 08:01:53;;;;;;;5.07;3.47;;;22.30;99.90;;;;;;5043523;28;20053;-75
2023/06/23 08:04:20;;;;;;;5.32;3.42;;;22.00;99.90;;;;;;5027328;28;20042;-77
2023/06/23 08:06:46;;;;;;;11.90;4.53;;;22.40;99.90;;;;;;5028734;28;20030;-77
2023/06/23 08:09:15;;;;;;;7.82;3.10;;;22.70;99.90;;;;;;5030726;28;20037;-78
2023/06/23 08:11:41;;;;;;;6.38;2.97;;;23.00;99.90;;;;;;5046177;28;20046;-75
2023/06/23 08:14:07;;;;;;;4.38;3.15;;;23.10;99.90;;;;;;5011696;28;20049;-79
2023/06/23 08:16:34;;;;;;;5.75;3.20;;;23.10;99.90;;;;;;5030288;28;20025;-78
2023/06/23 08:19:00;;;;;;;5.47;3.70;;;23.10;99.90;;;;;;5029156;28;20030;-75
2023/06/23 08:21:26;;;;;;;4.07;3.33;;;22.80;99.90;;;;;;5028036;28;20034;-75
2023/06/23 08:23:52;;;;;;;6.38;3.90;;;22.90;99.90;;;;;;5028789;28;20053;-75
2023/06/23 08:26:19;;;;;;;4.30;3.67;;;22.30;99.90;;;;;;5026139;28;20034;-79
2023/06/23 08:28:45;;;;;;;3.75;3.30;;;22.00;99.90;;;;;;5032108;28;20037;-78
2023/06/23 08:31:11;;;;;;;9.68;3.80;;;22.00;99.90;;;;;;5012199;28;20063;-76
2023/06/23 08:33:38;;;;;;;5.00;3.33;;;21.90;99.90;;;;;;5012500;28;20053;-77
2023/06/23 08:36:04;;;;;;;4.80;3.67;;;22.20;99.90;;;;;;5029477;28;20105;-78
2023/06/23 08:38:31;;;;;;;6.38;3.67;;;22.40;99.90;;;;;;5019141;28;20396;-74
2023/06/23 08:40:58;;;;;;;4.93;3.45;;;22.40;99.90;;;;;;5027214;28;20041;-74
2023/06/23 08:43:26;;;;;;;7.38;3.88;;;22.80;99.90;;;;;;5028783;28;20048;-78
2023/06/23 08:46:02;;;;;;;6.50;3.60;;;23.00;99.90;;;;;;5012196;28;20046;-78
2023/06/23 08:48:30;;;;;;;4.63;3.28;;;23.30;99.90;;;;;;5019404;28;20049;-76
2023/06/23 08:50:59;;;;;;;7.28;3.53;;;24.00;99.90;;;;;;5014216;28;20045;-74
2023/06/23 08:53:25;;;;;;;5.28;3.13;;;24.00;99.90;;;;;;5012580;28;20045;-75
2023/06/23 08:55:53;;;;;;;4.90;3.00;;;24.30;99.90;;;;;;5025774;28;20033;-77
2023/06/23 08:58:26;;;;;;;5.97;3.53;;;24.10;99.90;;;;;;5033131;28;20496;-76
2023/06/23 09:00:53;;;;;;;5.28;2.80;;;24.10;99.90;;;;;;5046047;28;20033;-76
2023/06/23 09:03:20;;;;;;;6.72;3.20;;;24.10;99.90;;;;;;5044607;28;20041;-74
2023/06/23 09:05:46;;;;;;;5.35;3.53;;;23.30;99.90;;;;;;5047994;28;20048;-76
2023/06/23 09:08:13;;;;;;;4.88;3.13;;;23.10;99.90;;;;;;5031150;28;20028;-77
2023/06/23 09:10:40;;;;;;;5.85;3.50;;;23.40;99.90;;;;;;5050119;28;20052;-75
2023/06/23 09:13:12;;;;;;;4.72;3.30;;;23.30;99.90;;;;;;5047426;28;20040;-74
2023/06/23 09:15:39;;;;;;;5.60;3.28;;;23.00;99.90;;;;;;5049809;28;20391;-75
2023/06/23 09:18:09;;;;;;;6.80;3.60;;;22.70;99.90;;;;;;5028346;28;20041;-74
2023/06/23 09:20:35;;;;;;;;;;;22.70;99.90;;;;;;5050087;28;20041;-75
2023/06/23 09:23:02;;;;;;;5.00;3.25;;;23.20;99.90;;;;;;5047964;28;19909;-75
2023/06/23 09:25:47;;;;;;;4.45;2.80;;;23.10;99.90;;;;;;5049375;28;20300;-74
2023/06/23 09:28:27;;;;;;;5.38;3.10;;;22.70;99.90;;;;;;5047123;28;20058;-76
2023/06/23 09:31:10;;;;;;;5.68;3.05;;;22.70;99.90;;;;;;5047488;28;20041;-77
2023/06/23 09:33:48;;;;;;;4.25;3.40;;;22.60;99.90;;;;;;5047260;28;20544;-77
2023/06/23 09:36:14;;;;;;;4.35;2.80;;;22.50;99.90;;;;;;5029633;28;20468;-80
2023/06/23 09:38:41;;;;;;;3.60;2.67;;;22.70;99.90;;;;;;5047708;28;20044;-79
2023/06/23 09:41:08;;;;;;;4.40;2.72;;;22.90;99.90;;;;;;5045166;28;20060;-75
2023/06/23 09:43:43;;;;;;;3.10;2.25;;;23.00;99.90;;;;;;5046701;28;20032;-76
2023/06/23 09:46:11;;;;;;;4.32;2.90;;;23.50;99.90;;;;;;5041443;28;20028;-78
2023/06/23 09:48:38;;;;;;;4.53;2.40;;;23.90;99.90;;;;;;5048861;28;20040;-77
2023/06/23 09:51:05;;;;;;;3.30;2.33;;;24.20;99.90;;;;;;5048020;28;20048;-78
2023/06/23 09:53:40;;;;;;;3.00;2.22;;;24.30;99.90;;;;;;5045991;28;20029;-78
2023/06/23 09:56:15;;;;;;;3.97;2.67;;;24.40;99.90;;;;;;5048212;28;20033;-77
2023/06/23 09:58:43;;;;;;;5.07;2.90;;;24.50;99.90;;;;;;5047418;28;20046;-77
2023/06/23 10:01:11;;;;;;;4.22;2.47;;;24.90;99.90;;;;;;5045758;28;20040;-80
2023/06/23 10:03:44;;;;;;;3.38;1.92;;;24.90;99.90;;;;;;5045824;28;20033;-77
2023/06/23 10:06:24;;;;;;;4.20;2.65;;;24.90;99.90;;;;;;5046566;28;20049;-76
2023/06/23 10:08:58;;;;;;;3.97;2.50;;;24.50;99.90;;;;;;5046275;28;20052;-76
2023/06/23 10:11:31;;;;;;;3.38;2.60;;;23.80;99.90;;;;;;5044507;28;20034;-77
2023/06/23 10:14:00;;;;;;;4.28;2.83;;;24.10;99.90;;;;;;5046659;28;20041;-75
2023/06/23 10:16:27;;;;;;;4.18;2.35;;;24.30;99.90;;;;;;5047579;28;20040;-79
2023/06/23 10:18:54;;;;;;;4.88;2.85;;;24.60;99.90;;;;;;5047091;28;20038;-77
2023/06/23 10:21:21;;;;;;;8.50;2.65;;;24.60;99.90;;;;;;5049437;28;20033;-75
2023/06/23 10:23:54;;;;;;;7.70;2.70;;;24.90;99.90;;;;;;5044355;28;20025;-75
2023/06/23 10:26:22;;;;;;;5.85;2.97;;;24.90;99.90;;;;;;5046145;28;20033;-76
2023/06/23 10:28:49;;;;;;;6.28;2.63;;;24.70;99.90;;;;;;5029048;28;20038;-77
2023/06/23 10:31:20;;;;;;;3.75;2.33;;;24.90;99.90;;;;;;5045702;28;20029;-77
2023/06/23 10:33:48;;;;;;;6.53;2.80;;;24.80;99.90;;;;;;5043311;28;20060;-75
2023/06/23 10:36:18;;;;;;;4.18;2.63;;;25.20;99.90;;;;;;5044737;28;20037;-78
2023/06/23 10:38:46;;;;;;;5.30;2.83;;;25.20;99.90;;;;;;5046486;28;20052;-79
2023/06/23 10:41:14;;;;;;;5.68;3.10;;;24.90;99.90;;;;;;5030485;28;20033;-78
2023/06/23 10:43:44;;;;;;;4.88;2.58;;;24.40;99.90;;;;;;5043859;28;20025;-82
2023/06/23 10:46:11;;;;;;;4.65;2.92;;;24.30;99.90;;;;;;5032450;28;20041;-78
2023/06/23 10:48:38;;;;;;;3.45;2.60;;;24.00;99.90;;;;;;5042097;28;20045;-78
2023/06/23 10:51:05;;;;;;;3.53;2.75;;;24.30;99.90;;;;;;5045793;28;20029;-79
2023/06/23 10:53:32;;;;;;;4.40;2.70;;;24.60;99.90;;;;;;5029795;28;20479;-78
2023/06/23 10:55:59;;;;;;;3.70;2.63;;;25.20;99.90;;;;;;5044010;28;20048;-80
2023/06/23 10:58:27;;;;;;;5.28;2.97;;;25.10;99.90;;;;;;5046281;28;20052;-78
2023/06/23 11:00:53;;;;;;;4.47;2.35;;;24.90;99.90;;;;;;5044848;28;20486;-78
2023/06/23 11:03:36;;;;;;;6.60;2.75;;;24.80;99.90;;;;;;5046231;28;20033;-79
2023/06/23 11:06:08;;;;;;;4.55;2.55;;;24.60;99.90;;;;;;5031719;28;20037;-79
2023/06/23 11:08:39;;;;;;;4.47;2.50;;;24.50;99.90;;;;;;5050278;28;20143;-79
2023/06/23 11:11:10;;;;;;;5.13;3.17;;;24.40;99.90;;;;;;5048472;28;20040;-79
2023/06/23 11:13:50;;;;;;;4.18;2.60;;;24.80;99.90;;;;;;5015467;28;20048;-79
2023/06/23 11:16:18;;;;;;;4.72;2.75;;;25.30;99.90;;;;;;5047307;28;20033;-81
2023/06/23 11:18:57;;;;;;;3.92;2.80;;;25.50;99.90;;;;;;5048530;28;20379;-77
2023/06/23 11:21:32;;;;;;;3.60;2.00;;;25.50;99.90;;;;;;5045722;28;20029;-78
2023/06/23 11:24:19;;;;;;;3.15;2.25;;;25.20;99.90;;;;;;5050114;28;20033;-77
2023/06/23 11:26:52;;;;;;;5.85;2.45;;;25.20;99.90;;;;;;5048229;28;20025;-75
2023/06/23 11:29:20;;;;;;;3.60;2.40;;;25.20;99.90;;;;;;5046112;28;20033;-81
2023/06/23 11:32:13;;;;;;;5.13;2.47;;;25.30;99.90;;;;;;5046579;28;20048;-79
2023/06/23 11:34:56;;;;;;;8.43;2.45;;;25.80;99.90;;;;;;5041156;28;20063;-78
2023/06/23 11:37:25;;;;;;;3.28;1.90;;;25.50;99.90;;;;;;5048780;28;20021;-79
2023/06/23 11:39:54;;;;;;;10.35;2.47;;;25.80;99.90;;;;;;5050688;28;20391;-76
2023/06/23 11:42:20;;;;;;;2.85;2.05;;;25.80;93.90;;;;;;5032356;28;20041;-81
2023/06/23 11:44:48;;;;;;;3.50;2.40;;;25.80;98.30;;;;;;5047883;28;20044;-77
2023/06/23 11:47:16;;;;;;;8.68;2.65;;;25.70;96.40;;;;;;5036136;28;20072;-81
2023/06/23 11:49:42;;;;;;;4.70;2.42;;;25.40;98.40;;;;;;5035048;28;20041;-79
2023/06/23 11:52:09;;;;;;;3.35;2.30;;;25.40;99.90;;;;;;5052847;28;20372;-79
2023/06/23 11:54:36;;;;;;;2.47;2.22;;;25.40;99.90;;;;;;5048391;28;20041;-75
2023/06/23 11:57:03;;;;;;;3.90;2.60;;;25.80;99.70;;;;;;5048178;28;20032;-82
2023/06/23 11:59:36;;;;;;;3.85;2.75;;;26.00;99.90;;;;;;5049487;28;20041;-80
2023/06/23 12:02:03;;;;;;;3.15;2.10;;;25.50;99.90;;;;;;5048843;28;20399;-81
2023/06/23 12:04:31;;;;;;;4.20;2.10;;;25.30;99.90;;;;;;5046830;28;20044;-77
2023/06/23 12:06:59;;;;;;;4.78;2.95;;;25.50;99.90;;;;;;5048730;28;20029;-79
2023/06/23 12:09:26;;;;;;;3.03;2.25;;;25.40;99.90;;;;;;5049764;28;20025;-78
2023/06/23 12:11:57;;;;;;;2.92;2.20;;;25.50;99.90;;;;;;5049234;28;20040;-79
2023/06/23 12:14:33;;;;;;;3.88;2.45;;;25.50;97.60;;;;;;5049191;28;20037;-79
2023/06/23 12:17:17;;;;;;;3.10;2.30;;;25.80;96.80;;;;;;5047632;28;20030;-80
2023/06/23 12:19:44;;;;;;;3.17;2.10;;;25.80;87.40;;;;;;5048111;28;20045;-77
2023/06/23 12:22:18;;;;;;;3.05;2.20;;;25.70;88.80;;;;;;5051813;28;20502;-83
2023/06/23 12:24:44;;;;;;;4.68;2.50;;;25.90;95.30;;;;;;5032309;28;20057;-78
2023/06/23 12:27:11;;;;;;;2.92;2.10;;;26.40;96.00;;;;;;5047310;28;20029;-81
2023/06/23 12:29:38;;;;;;;6.07;2.22;;;26.60;75.20;;;;;;5032628;28;20103;-82
2023/06/23 12:32:04;;;;;;;4.43;1.92;;;26.50;84.40;;;;;;5052191;28;20037;-78
2023/06/23 12:34:42;;;;;;;4.63;2.17;;;26.40;92.10;;;;;;5045723;28;20047;-79
2023/06/23 12:37:12;;;;;;;2.60;1.80;;;26.70;87.30;;;;;;5029693;28;20032;-82
2023/06/23 12:39:38;;;;;;;2.90;2.15;;;26.80;92.20;;;;;;5048950;28;20454;-81
2023/06/23 12:42:07;;;;;;;5.50;2.50;;;26.70;84.30;;;;;;5049873;28;20048;-81
2023/06/23 12:44:35;;;;;;;3.67;2.03;;;26.30;90.10;;;;;;5049051;28;20040;-79
2023/06/23 12:47:01;;;;;;;3.72;2.15;;;25.80;93.40;;;;;;5064769;28;20063;-80
2023/06/23 12:49:29;;;;;;;3.72;2.28;;;25.80;86.70;;;;;;5050503;28;20033;-78
2023/06/23 12:51:55;;;;;;;3.40;2.28;;;26.00;75.30;;;;;;5050438;28;20033;-82
2023/06/23 12:54:22;;;;;;;4.63;1.98;;;26.00;75.70;;;;;;5049498;28;20391;-81
2023/06/23 12:56:48;;;;;;;7.90;2.25;;;26.30;85.40;;;;;;5049385;28;20032;-82
2023/06/23 12:59:14;;;;;;;7.32;2.58;;;26.70;74.20;;;;;;5051222;28;20056;-78
2023/06/23 13:01:41;;;;;;;4.30;2.25;;;26.80;64.40;;;;;;5048707;28;20075;-80
2023/06/23 13:04:07;;;;;;;2.80;2.38;;;26.40;72.20;;;;;;5052918;28;20044;-78